Arcanum, OH

8:25 AM EST on December 19, 2014 (GMT -0500)
KOHARCAN1 | Change Station
CLOSE
Current Station
Personal Weather Station
Location: Arcanum, OH
Elevation: 1063 ft
Nearby Weather Stations

Elev 1063 ft 40.00 °N, 84.58 °W | Updated 2 seconds ago

Overcast
Overcast
25.7 °F
Feels Like 22 °F
N
3.1
Wind Variable Wind from South
Gusts 6.0 mph

Today
High -- | Low -- °F
--% Chance of Precip.
Yesterday
High -- | Low -- °F
Precip. -- in
7:55 AM 5:15 PM
Waning Crescent, 8% visible
Pressure 30.25 in
Visibility 7.0 miles
Clouds Overcast 2400 ft
Windchill 22 °F
Dew Point 17 °F
Humidity 68%
Rainfall 0.00 in
Snow Depth Not available.
UV 0 out of 12
Pollen .10 out of 12
Air Quality Not available.
Flu Activity Not available.
METAR KVES 191315Z AUTO 31004KT 7SM OVC024 M03/M04 A3025 RMK AO2

More Conditions Fewer Conditions

Pressure 30.25 in
Visibility 7.0 miles
Clouds Overcast 2400 ft
Windchill 22 °F
Dew Point 17 °F
Humidity 68%
Rainfall 0.00 in
Snow Depth Not available.
UV 0 out of 12
Pollen .10 out of 12
Air Quality Not available.
Flu Activity Not available.
METAR KVES 191315Z AUTO 31004KT 7SM OVC024 M03/M04 A3025 RMK AO2

More Conditions Fewer Conditions

10-Day Weather Forecast

Almanac

Astronomy

Dec. 19, 2014 Rise Set
Actual Time
Civil Twilight
Nautical Twilight
Astronomical Twilight
Moon
Length of Visible Light
Length of Day
Tomorrow will be .
, % of the Moon is Illuminated

Today's Extremes

State Highs State Lows

Community

WunderPhotos

Upload Photos

1,778,985 photos uploaded!

WunderBlogs® & News

Nearby

Air Quality

  Air Quality AQ Index Pollutant
Not available.

Snow Depth

Station Depth Elevation

Earthquake Activity

City Distance Mag. Time & Date
Minimum magnitude displayed is 2.5.

Coastal Water Temperatures

Place Temperature

Nearby Weather Stations